createdAt,value
2019-03-09T00:01:31.886Z,12.00
2019-03-09T00:04:01.727Z,11.90
2019-03-09T00:06:31.300Z,12.80
2019-03-09T00:09:00.830Z,10.67
2019-03-09T00:11:30.481Z,11.13
2019-03-09T00:14:00.032Z,10.23
2019-03-09T00:16:29.584Z,11.10
2019-03-09T00:18:59.130Z,10.80
2019-03-09T00:21:28.686Z,12.30
2019-03-09T00:24:22.988Z,12.23
2019-03-09T00:26:59.902Z,12.70
2019-03-09T00:29:48.288Z,12.63
2019-03-09T00:32:19.748Z,12.10
2019-03-09T00:34:49.372Z,13.57
2019-03-09T00:37:18.918Z,15.00
2019-03-09T00:39:48.479Z,12.80
2019-03-09T00:42:18.040Z,12.80
2019-03-09T00:44:47.600Z,12.33
2019-03-09T00:47:17.392Z,13.30
2019-03-09T00:49:46.941Z,11.73
2019-03-09T00:52:16.483Z,12.33
2019-03-09T00:54:46.042Z,12.77
2019-03-09T00:57:15.575Z,11.90
2019-03-09T00:59:45.116Z,12.07
2019-03-09T01:02:14.688Z,13.53
2019-03-09T01:04:44.218Z,13.93
2019-03-09T01:07:13.785Z,16.63
2019-03-09T01:09:43.499Z,14.87
2019-03-09T01:12:13.088Z,16.37
2019-03-09T01:14:42.626Z,16.60
2019-03-09T01:17:12.331Z,17.27
2019-03-09T01:19:41.904Z,17.20
2019-03-09T01:22:11.443Z,19.03
2019-03-09T01:24:41.009Z,22.13
2019-03-09T01:27:10.613Z,23.00
2019-03-09T01:29:40.148Z,22.17
2019-03-09T01:32:09.708Z,22.33
2019-03-09T01:34:39.242Z,22.67
2019-03-09T01:37:08.826Z,28.00
2019-03-09T01:39:38.366Z,25.90
2019-03-09T01:42:07.920Z,25.47
2019-03-09T01:44:37.495Z,24.00
2019-03-09T01:47:07.058Z,24.60
2019-03-09T01:49:36.621Z,23.53
2019-03-09T01:52:06.166Z,24.67
2019-03-09T01:54:35.711Z,23.00
2019-03-09T01:57:05.260Z,22.70
2019-03-09T01:59:34.819Z,24.97
2019-03-09T02:02:04.387Z,21.60
2019-03-09T02:04:33.931Z,23.80
2019-03-09T02:07:03.452Z,24.47
2019-03-09T02:09:33.088Z,25.30
2019-03-09T02:12:02.631Z,23.87
2019-03-09T02:14:32.191Z,24.20
2019-03-09T02:17:01.720Z,22.90
2019-03-09T02:19:31.261Z,22.90
2019-03-09T02:22:00.809Z,22.73
2019-03-09T02:24:30.353Z,24.13
2019-03-09T02:26:59.899Z,23.67
2019-03-09T02:29:29.464Z,22.73
2019-03-09T02:31:58.996Z,22.50
2019-03-09T02:34:28.570Z,21.97
2019-03-09T02:36:58.130Z,23.83
2019-03-09T02:39:32.876Z,24.33
2019-03-09T02:42:02.409Z,25.30
2019-03-09T02:44:32.092Z,22.03
2019-03-09T02:47:01.636Z,22.80
2019-03-09T02:49:31.254Z,22.37
2019-03-09T02:52:00.879Z,21.47
2019-03-09T02:54:30.440Z,23.57
2019-03-09T02:57:00.008Z,23.47
2019-03-09T02:59:29.544Z,24.70
2019-03-09T03:02:20.894Z,30.00
2019-03-09T03:04:50.494Z,23.27
2019-03-09T03:07:20.044Z,24.40
2019-03-09T03:09:49.582Z,23.57
2019-03-09T03:12:19.137Z,23.67
2019-03-09T03:14:48.677Z,22.70
2019-03-09T03:17:18.231Z,22.80
2019-03-09T03:19:47.798Z,24.10
2019-03-09T03:22:17.483Z,23.23
2019-03-09T03:24:47.035Z,23.70
2019-03-09T03:27:16.570Z,23.83
2019-03-09T03:29:46.126Z,26.33
2019-03-09T03:32:15.681Z,30.10
2019-03-09T03:34:45.219Z,31.73
2019-03-09T03:37:14.813Z,32.23
2019-03-09T03:39:44.360Z,27.30
2019-03-09T03:42:13.984Z,28.40
2019-03-09T03:44:46.799Z,30.40
2019-03-09T03:47:17.385Z,28.83
2019-03-09T03:49:46.935Z,27.80
2019-03-09T03:52:16.461Z,26.57
2019-03-09T03:54:45.988Z,27.50
2019-03-09T03:57:15.542Z,28.57
2019-03-09T03:59:45.084Z,26.70
2019-03-09T04:02:14.703Z,25.93
2019-03-09T04:04:44.250Z,26.77
2019-03-09T04:07:13.914Z,26.40
2019-03-09T04:09:43.437Z,24.80
2019-03-09T04:12:12.992Z,21.73
2019-03-09T04:14:42.524Z,24.40
2019-03-09T04:17:12.113Z,23.90
2019-03-09T04:19:41.785Z,23.60
2019-03-09T04:22:11.359Z,23.97
2019-03-09T04:24:41.015Z,22.60
2019-03-09T04:27:10.853Z,23.23
2019-03-09T04:29:40.405Z,22.43
2019-03-09T04:32:10.128Z,23.00
2019-03-09T04:34:39.652Z,22.00
2019-03-09T04:37:09.207Z,19.30
2019-03-09T04:39:38.768Z,21.60
2019-03-09T04:42:08.300Z,21.30
2019-03-09T04:44:37.879Z,18.40
2019-03-09T04:47:07.455Z,20.20
2019-03-09T04:49:37.087Z,20.57
2019-03-09T04:52:06.809Z,20.93
2019-03-09T04:54:36.507Z,21.90
2019-03-09T04:57:06.168Z,21.53
2019-03-09T04:59:35.704Z,21.80
2019-03-09T05:02:05.248Z,22.10
2019-03-09T05:04:43.064Z,21.57
2019-03-09T05:07:15.236Z,21.83
2019-03-09T05:10:01.061Z,21.20
2019-03-09T05:12:30.840Z,19.87
2019-03-09T05:15:00.373Z,21.60
2019-03-09T05:17:29.960Z,21.80
2019-03-09T05:19:59.497Z,22.23
2019-03-09T05:22:29.025Z,20.17
2019-03-09T05:24:58.604Z,21.67
2019-03-09T05:27:28.171Z,21.77
2019-03-09T05:29:57.807Z,22.73
2019-03-09T05:32:27.443Z,20.37
2019-03-09T05:34:57.162Z,20.50
2019-03-09T05:37:26.753Z,21.70
2019-03-09T05:39:56.401Z,25.47
2019-03-09T05:42:26.179Z,27.97
2019-03-09T05:44:55.801Z,26.17
2019-03-09T05:47:25.600Z,25.80
2019-03-09T05:49:56.371Z,24.00
2019-03-09T05:52:43.350Z,24.57
2019-03-09T05:55:18.522Z,24.03
2019-03-09T05:57:48.211Z,23.30
2019-03-09T06:00:18.325Z,20.80
2019-03-09T06:02:48.040Z,13.50
2019-03-09T06:05:35.454Z,19.47
2019-03-09T06:08:05.192Z,17.60
2019-03-09T06:10:34.735Z,16.60
2019-03-09T06:13:04.325Z,14.40
2019-03-09T06:15:33.920Z,16.13
2019-03-09T06:18:03.606Z,13.57
2019-03-09T06:20:33.165Z,13.30
2019-03-09T06:23:02.828Z,13.33
2019-03-09T06:25:32.517Z,9.60
2019-03-09T06:28:02.143Z,7.17
2019-03-09T06:30:31.832Z,7.27
2019-03-09T06:33:36.134Z,11.00
2019-03-09T06:36:18.474Z,14.00
2019-03-09T06:38:59.778Z,8.50
2019-03-09T06:41:33.591Z,7.97
2019-03-09T06:44:03.243Z,7.20
2019-03-09T06:46:32.881Z,7.60
2019-03-09T06:49:02.538Z,7.27
2019-03-09T06:51:32.190Z,8.17
2019-03-09T06:54:01.810Z,8.50
2019-03-09T06:56:31.403Z,8.00
2019-03-09T06:59:00.965Z,8.83
2019-03-09T07:01:30.622Z,14.77
2019-03-09T07:04:00.336Z,11.60
2019-03-09T07:06:29.986Z,10.97
2019-03-09T07:08:59.577Z,11.30
2019-03-09T07:11:29.118Z,12.23
2019-03-09T07:14:19.232Z,12.03
2019-03-09T07:16:48.760Z,10.80
2019-03-09T07:19:18.487Z,11.50
2019-03-09T07:21:48.157Z,12.30
2019-03-09T07:24:17.797Z,11.10
2019-03-09T07:26:47.556Z,11.50
2019-03-09T07:29:17.327Z,9.80
2019-03-09T07:31:46.908Z,10.00
2019-03-09T07:34:26.586Z,10.83
2019-03-09T07:36:56.251Z,11.17
2019-03-09T07:39:26.002Z,12.30
2019-03-09T07:41:55.604Z,12.53
2019-03-09T07:44:25.383Z,15.57
2019-03-09T07:46:55.036Z,11.17
2019-03-09T07:49:24.803Z,12.47
2019-03-09T07:51:54.442Z,11.77
2019-03-09T07:54:24.019Z,11.83
2019-03-09T07:56:53.574Z,11.73
2019-03-09T07:59:23.146Z,11.00
2019-03-09T08:01:52.828Z,10.67
2019-03-09T08:04:22.446Z,10.60
2019-03-09T08:06:51.999Z,11.60
2019-03-09T08:09:21.553Z,12.10
2019-03-09T08:11:51.111Z,10.40
2019-03-09T08:14:20.643Z,10.00
2019-03-09T08:16:50.244Z,8.90
2019-03-09T08:19:20.227Z,11.27
2019-03-09T08:21:49.800Z,8.73
2019-03-09T08:24:19.336Z,9.00
2019-03-09T08:26:48.884Z,9.00
2019-03-09T08:29:18.470Z,9.20
2019-03-09T08:31:48.035Z,7.80
2019-03-09T08:34:17.587Z,7.40
2019-03-09T08:36:47.277Z,7.93
2019-03-09T08:39:16.863Z,7.33
2019-03-09T08:41:46.426Z,7.53
2019-03-09T08:44:16.000Z,7.13
2019-03-09T08:46:45.524Z,8.37
2019-03-09T08:49:15.090Z,7.90
2019-03-09T08:51:44.676Z,7.47
2019-03-09T08:54:14.263Z,7.30
2019-03-09T08:56:43.936Z,8.90
2019-03-09T08:59:13.501Z,9.53
2019-03-09T09:01:43.084Z,9.93
2019-03-09T09:04:12.612Z,8.37
2019-03-09T09:06:42.175Z,8.00
2019-03-09T09:09:11.746Z,6.90
2019-03-09T09:11:41.306Z,6.00
2019-03-09T09:14:10.876Z,7.03
2019-03-09T09:16:40.452Z,6.27
2019-03-09T09:19:10.034Z,5.80
2019-03-09T09:21:48.434Z,5.43
2019-03-09T09:24:18.027Z,6.53
2019-03-09T09:26:47.622Z,7.50
2019-03-09T09:29:17.157Z,5.27
2019-03-09T09:31:46.701Z,7.03
2019-03-09T09:34:16.274Z,5.83
2019-03-09T09:36:45.915Z,5.43
2019-03-09T09:39:15.480Z,5.70
2019-03-09T09:41:45.041Z,4.60
2019-03-09T09:44:14.610Z,5.40
2019-03-09T09:46:44.166Z,6.13
2019-03-09T09:49:13.745Z,4.87
2019-03-09T09:51:43.270Z,4.43
2019-03-09T09:54:12.825Z,6.10
2019-03-09T09:56:42.378Z,4.83
2019-03-09T09:59:11.906Z,5.53
2019-03-09T10:01:41.423Z,4.30
2019-03-09T10:04:10.994Z,4.23
2019-03-09T10:06:40.541Z,4.73
2019-03-09T10:09:10.069Z,5.10
2019-03-09T10:11:39.606Z,5.30
2019-03-09T10:14:09.159Z,5.13
2019-03-09T10:16:38.696Z,4.47
2019-03-09T10:19:08.242Z,5.33
2019-03-09T10:21:37.794Z,4.20
2019-03-09T10:24:07.344Z,5.07
2019-03-09T10:26:36.916Z,5.20
2019-03-09T10:29:06.448Z,4.33
2019-03-09T10:31:36.061Z,3.70
2019-03-09T10:34:05.587Z,5.17
2019-03-09T10:36:35.131Z,5.00
2019-03-09T10:39:05.868Z,5.53
2019-03-09T10:41:35.434Z,5.67
2019-03-09T10:44:04.990Z,4.40
2019-03-09T10:46:34.563Z,4.83
2019-03-09T10:49:04.131Z,4.07
2019-03-09T10:51:33.702Z,4.73
2019-03-09T10:54:03.340Z,4.63
2019-03-09T10:56:32.923Z,4.80
2019-03-09T10:59:02.589Z,4.10
2019-03-09T11:01:32.276Z,4.40
2019-03-09T11:04:01.845Z,4.80
2019-03-09T11:06:31.479Z,6.60
2019-03-09T11:09:01.143Z,4.30
2019-03-09T11:11:30.803Z,4.50
2019-03-09T11:14:00.343Z,4.53
2019-03-09T11:16:29.914Z,4.30
2019-03-09T11:18:59.492Z,4.67
2019-03-09T11:21:29.161Z,5.00
2019-03-09T11:23:58.720Z,5.80
2019-03-09T11:26:28.256Z,4.33
2019-03-09T11:28:57.858Z,7.67
2019-03-09T11:31:27.475Z,4.47
2019-03-09T11:33:57.165Z,5.87
2019-03-09T11:36:26.721Z,5.30
2019-03-09T11:38:56.263Z,5.43
2019-03-09T11:41:25.836Z,5.13
2019-03-09T11:43:55.507Z,6.30
2019-03-09T11:46:25.241Z,4.67
2019-03-09T11:48:54.782Z,4.63
2019-03-09T11:51:24.442Z,5.10
2019-03-09T11:53:54.013Z,5.00
2019-03-09T11:56:23.570Z,5.40
2019-03-09T11:58:53.104Z,4.90
2019-03-09T12:01:22.790Z,4.90
2019-03-09T12:03:52.378Z,4.67
2019-03-09T12:06:21.998Z,4.20
2019-03-09T12:08:51.583Z,4.03
2019-03-09T12:11:21.313Z,6.93
2019-03-09T12:13:50.933Z,4.93
2019-03-09T12:16:20.704Z,4.23
2019-03-09T12:18:50.328Z,4.97
2019-03-09T12:21:19.981Z,4.77
2019-03-09T12:23:49.537Z,5.33
2019-03-09T12:26:19.449Z,4.57
2019-03-09T12:28:48.994Z,4.27
2019-03-09T12:31:18.686Z,4.70
2019-03-09T12:33:48.383Z,4.70
2019-03-09T12:36:18.032Z,5.17
2019-03-09T12:38:47.557Z,4.60
2019-03-09T12:41:17.222Z,4.67
2019-03-09T12:43:46.793Z,4.43
2019-03-09T12:46:16.433Z,4.73
2019-03-09T12:48:46.223Z,4.20
2019-03-09T12:51:15.934Z,4.90
2019-03-09T12:53:45.529Z,5.17
2019-03-09T12:56:15.083Z,10.53
2019-03-09T12:58:46.217Z,4.63
2019-03-09T13:01:16.098Z,5.53
2019-03-09T13:03:45.686Z,4.57
2019-03-09T13:06:15.219Z,4.40
2019-03-09T13:08:44.763Z,5.30
2019-03-09T13:11:14.433Z,4.23
2019-03-09T13:13:44.127Z,5.17
2019-03-09T13:16:13.689Z,4.87
2019-03-09T13:18:43.246Z,4.07
2019-03-09T13:21:12.804Z,4.70
2019-03-09T13:23:42.345Z,4.90
2019-03-09T13:26:11.934Z,4.20
2019-03-09T13:28:41.521Z,3.83
2019-03-09T13:31:11.210Z,4.60
2019-03-09T13:33:40.895Z,4.50
2019-03-09T13:36:10.498Z,5.63
2019-03-09T13:38:40.157Z,3.50
2019-03-09T13:41:09.949Z,4.37
2019-03-09T13:43:39.733Z,4.37
2019-03-09T13:46:09.266Z,3.80
2019-03-09T13:48:38.819Z,4.33
2019-03-09T13:51:08.377Z,4.17
2019-03-09T13:53:37.926Z,3.80
2019-03-09T13:56:07.479Z,3.83
2019-03-09T13:58:37.105Z,4.63
2019-03-09T14:01:06.656Z,3.93
2019-03-09T14:03:36.210Z,3.30
2019-03-09T14:06:05.748Z,3.20
2019-03-09T14:08:35.338Z,4.23
2019-03-09T14:11:04.936Z,3.53
2019-03-09T14:13:34.588Z,2.93
2019-03-09T14:16:04.148Z,3.50
2019-03-09T14:18:33.691Z,4.03
2019-03-09T14:21:03.222Z,3.30
2019-03-09T14:23:32.816Z,3.60
2019-03-09T14:26:02.409Z,4.30
2019-03-09T14:28:31.949Z,3.23
2019-03-09T14:31:01.532Z,3.53
2019-03-09T14:33:31.099Z,3.37
2019-03-09T14:36:00.729Z,4.23
2019-03-09T14:38:30.386Z,3.63
2019-03-09T14:40:59.995Z,3.87
2019-03-09T14:43:29.749Z,3.83
2019-03-09T14:45:59.439Z,3.47
2019-03-09T14:48:28.982Z,3.53
2019-03-09T14:50:58.523Z,3.93
2019-03-09T14:53:28.169Z,3.93
2019-03-09T14:55:57.745Z,3.87
2019-03-09T14:58:27.290Z,3.47
2019-03-09T15:00:56.821Z,3.43
2019-03-09T15:03:26.445Z,3.40
2019-03-09T15:05:55.993Z,7.40
2019-03-09T15:08:25.602Z,10.70
2019-03-09T15:10:55.218Z,6.67
2019-03-09T15:13:24.809Z,5.43
2019-03-09T15:15:54.393Z,4.37
2019-03-09T15:18:23.916Z,4.60
2019-03-09T15:20:53.473Z,3.70
2019-03-09T15:23:23.155Z,4.63
2019-03-09T15:25:52.726Z,4.20
2019-03-09T15:28:22.330Z,4.30
2019-03-09T15:30:51.963Z,4.07
2019-03-09T15:33:22.056Z,5.07
2019-03-09T15:35:51.755Z,5.80
2019-03-09T15:38:21.382Z,5.70
2019-03-09T15:40:51.019Z,7.80
2019-03-09T15:43:20.692Z,7.53
2019-03-09T15:45:50.368Z,6.87
2019-03-09T15:48:20.034Z,6.40
2019-03-09T15:50:49.576Z,6.60
2019-03-09T15:53:19.094Z,7.83
2019-03-09T15:55:48.770Z,6.63
2019-03-09T15:58:18.343Z,6.80
2019-03-09T16:00:47.992Z,7.40
2019-03-09T16:03:17.580Z,8.80
2019-03-09T16:05:47.225Z,10.80
2019-03-09T16:08:16.794Z,15.03
2019-03-09T16:10:46.598Z,14.20
2019-03-09T16:13:16.192Z,17.63
2019-03-09T16:15:45.899Z,11.10
2019-03-09T16:18:15.562Z,13.83
2019-03-09T16:20:45.090Z,11.13
2019-03-09T16:23:14.667Z,8.67
2019-03-09T16:25:44.285Z,8.80
2019-03-09T16:28:13.844Z,8.73
2019-03-09T16:30:43.590Z,10.60
2019-03-09T16:33:13.186Z,7.20
2019-03-09T16:35:42.731Z,8.43
2019-03-09T16:38:12.314Z,11.90
2019-03-09T16:40:41.884Z,13.63
2019-03-09T16:43:11.591Z,15.33
2019-03-09T16:45:41.409Z,10.30
2019-03-09T16:48:10.964Z,9.67
2019-03-09T16:50:40.655Z,7.63
2019-03-09T16:53:10.199Z,7.73
2019-03-09T16:55:39.749Z,7.60
2019-03-09T16:58:09.462Z,8.20
2019-03-09T17:00:38.987Z,8.10
2019-03-09T17:03:08.558Z,13.60
2019-03-09T17:05:38.116Z,10.53
2019-03-09T17:08:07.663Z,8.53
2019-03-09T17:10:37.239Z,10.00
2019-03-09T17:13:06.794Z,6.97
2019-03-09T17:15:36.358Z,7.77
2019-03-09T17:18:05.904Z,7.27
2019-03-09T17:20:35.495Z,6.50
2019-03-09T17:23:05.157Z,6.00
2019-03-09T17:25:34.719Z,6.27
2019-03-09T17:28:04.259Z,7.60
2019-03-09T17:30:34.265Z,6.13
2019-03-09T17:33:03.817Z,7.47
2019-03-09T17:35:33.718Z,10.77
2019-03-09T17:38:03.371Z,9.63
2019-03-09T17:40:33.107Z,6.00
2019-03-09T17:43:02.680Z,4.40
2019-03-09T17:45:32.321Z,4.60
2019-03-09T17:48:01.859Z,4.93
2019-03-09T17:50:31.660Z,4.50
2019-03-09T17:53:01.359Z,6.60
2019-03-09T17:55:31.140Z,8.13
2019-03-09T17:58:00.724Z,6.40
2019-03-09T18:00:41.817Z,7.10
2019-03-09T18:03:02.758Z,6.17
2019-03-09T18:05:32.342Z,5.30
2019-03-09T18:08:01.887Z,5.13
2019-03-09T18:10:35.381Z,5.07
2019-03-09T18:13:04.949Z,5.20
2019-03-09T18:15:34.509Z,4.03
2019-03-09T18:18:04.047Z,4.77
2019-03-09T18:20:33.634Z,6.33
2019-03-09T18:23:05.141Z,4.63
2019-03-09T18:25:35.017Z,3.97
2019-03-09T18:28:04.566Z,4.37
2019-03-09T18:30:37.902Z,3.90
2019-03-09T18:33:07.477Z,4.60
2019-03-09T18:35:38.962Z,5.17
2019-03-09T18:38:08.549Z,3.77
2019-03-09T18:40:39.430Z,5.73
2019-03-09T18:43:09.168Z,8.20
2019-03-09T18:45:38.890Z,7.00
2019-03-09T18:48:08.653Z,6.20
2019-03-09T18:50:38.254Z,6.10
2019-03-09T18:53:08.183Z,5.87
2019-03-09T18:55:38.074Z,5.33
2019-03-09T18:58:07.624Z,4.47
2019-03-09T19:00:37.259Z,4.90
2019-03-09T19:03:06.771Z,5.20
2019-03-09T19:05:36.415Z,4.80
2019-03-09T19:08:05.959Z,5.43
2019-03-09T19:10:35.536Z,8.80
2019-03-09T19:13:05.179Z,8.00
2019-03-09T19:15:34.735Z,7.17
2019-03-09T19:18:04.265Z,7.40
2019-03-09T19:20:33.803Z,6.70
2019-03-09T19:23:03.354Z,7.57
2019-03-09T19:25:33.008Z,5.87
2019-03-09T19:28:02.555Z,4.73
2019-03-09T19:30:32.208Z,5.53
2019-03-09T19:33:01.769Z,6.13
2019-03-09T19:35:31.325Z,6.90
2019-03-09T19:38:00.926Z,6.63
2019-03-09T19:40:30.573Z,6.00
2019-03-09T19:43:00.232Z,5.13
2019-03-09T19:45:29.784Z,6.10
2019-03-09T19:47:59.442Z,6.33
2019-03-09T19:50:29.029Z,6.57
2019-03-09T19:52:59.239Z,6.00
2019-03-09T19:55:29.060Z,5.13
2019-03-09T19:57:58.705Z,5.43
2019-03-09T20:00:28.307Z,6.23
2019-03-09T20:02:57.857Z,5.23
2019-03-09T20:05:27.455Z,4.27
2019-03-09T20:07:57.017Z,4.47
2019-03-09T20:10:26.599Z,3.63
2019-03-09T20:12:56.158Z,5.13
2019-03-09T20:15:25.763Z,4.80
2019-03-09T20:17:55.364Z,3.80
2019-03-09T20:20:24.956Z,4.60
2019-03-09T20:22:54.524Z,5.00
2019-03-09T20:25:24.262Z,6.13
2019-03-09T20:27:53.929Z,5.73
2019-03-09T20:30:23.600Z,4.17
2019-03-09T20:32:53.168Z,4.17
2019-03-09T20:35:22.724Z,4.27
2019-03-09T20:37:52.549Z,5.17
2019-03-09T20:40:22.474Z,5.00
2019-03-09T20:42:52.074Z,4.13
2019-03-09T20:45:21.754Z,4.27
2019-03-09T20:47:51.446Z,4.43
2019-03-09T20:50:22.456Z,3.70
2019-03-09T20:52:52.099Z,3.50
2019-03-09T20:55:22.360Z,3.47
2019-03-09T20:57:52.624Z,3.37
2019-03-09T21:00:22.276Z,3.57
2019-03-09T21:02:52.042Z,3.13
2019-03-09T21:05:22.619Z,2.90
2019-03-09T21:07:52.830Z,3.50
2019-03-09T21:10:23.066Z,4.30
2019-03-09T21:13:03.879Z,3.63
2019-03-09T21:15:33.427Z,3.97
2019-03-09T21:18:02.976Z,3.73
2019-03-09T21:20:32.508Z,4.80
2019-03-09T21:23:02.070Z,3.87
2019-03-09T21:25:31.663Z,4.50
2019-03-09T21:28:01.274Z,4.47
2019-03-09T21:30:30.792Z,5.20
2019-03-09T21:33:00.422Z,5.27
2019-03-09T21:35:30.077Z,4.67
2019-03-09T21:37:59.675Z,5.27
2019-03-09T21:40:29.237Z,5.67
2019-03-09T21:42:58.819Z,7.83
2019-03-09T21:45:28.460Z,6.77
2019-03-09T21:47:58.074Z,7.20
2019-03-09T21:50:27.639Z,6.10
2019-03-09T21:52:57.214Z,5.90
2019-03-09T21:55:26.764Z,5.03
2019-03-09T21:57:56.365Z,4.80
2019-03-09T22:00:26.011Z,4.80
2019-03-09T22:02:55.581Z,4.97
2019-03-09T22:05:25.220Z,4.90
2019-03-09T22:07:55.862Z,5.53
2019-03-09T22:10:25.672Z,6.80
2019-03-09T22:12:55.241Z,6.90
2019-03-09T22:15:24.885Z,7.37
2019-03-09T22:17:54.455Z,6.10
2019-03-09T22:20:24.092Z,6.87
2019-03-09T22:22:53.689Z,6.00
2019-03-09T22:25:23.292Z,4.87
2019-03-09T22:27:52.847Z,4.80
2019-03-09T22:30:22.420Z,5.27
2019-03-09T22:32:51.938Z,5.50
2019-03-09T22:35:21.518Z,5.10
2019-03-09T22:37:51.060Z,5.80
2019-03-09T22:40:20.707Z,5.53
2019-03-09T22:42:50.233Z,4.87
2019-03-09T22:45:19.775Z,5.60
2019-03-09T22:47:49.310Z,4.83
2019-03-09T22:50:18.902Z,5.03
2019-03-09T22:52:48.539Z,4.80
2019-03-09T22:55:18.078Z,3.93
2019-03-09T22:57:47.623Z,3.70
2019-03-09T23:00:18.083Z,4.87
2019-03-09T23:02:47.620Z,4.43
2019-03-09T23:05:17.291Z,4.57
2019-03-09T23:07:46.861Z,5.20
2019-03-09T23:10:16.923Z,4.93
2019-03-09T23:12:46.534Z,4.63
2019-03-09T23:15:16.428Z,5.37
2019-03-09T23:20:13.845Z,4.77
2019-03-09T23:22:43.370Z,4.70
2019-03-09T23:25:12.991Z,5.13
2019-03-09T23:27:42.540Z,4.57
2019-03-09T23:30:17.017Z,4.10
2019-03-09T23:32:46.547Z,4.40
2019-03-09T23:35:16.162Z,4.77
2019-03-09T23:37:45.773Z,4.70
2019-03-09T23:40:15.850Z,5.23
2019-03-09T23:42:45.393Z,4.40
2019-03-09T23:45:15.557Z,4.40
2019-03-09T23:47:45.134Z,4.90
2019-03-09T23:50:15.491Z,4.00
2019-03-09T23:52:45.042Z,4.10
2019-03-09T23:55:22.025Z,4.80
2019-03-09T23:57:45.882Z,4.60
